メインページ
METAR-TAF:

METAR-TAF

空港 :

Havre City-County Airport

Havre, モンタナ州, アメリカ合衆国

緯度: 48-32-34N, 経度: 109-45-48W, 海抜: 789m

現時点の気象観測

当レポートは56分前の17:53(UTC)に作成
西/南西の風 11kt、最大19ktの突風を伴う
気温 25°C
湿度 34%
気圧 1011 hPa
視程: 16.1km
高度9500ftの千切れ雲あり

METAR: KHVR 181753Z AUTO 24011G19KT 10SM BKN095 25/08 A2985 RMK AO2 LTG DSNT SE SLP094 T02500083 10267 20150 56015

時間: 12:49 (18:49 UTC)

予報

当レポートは1時間21分前の17:28(UTC)に作成
予報は18日の 18時(UTC)から 19日の 18時(UTC)まで有効
南西の風 11kt
視程: 10km
高度5000ftの雲は散在している, 積乱雲.
高度9000ftの千切れ雲あり
近辺で激しい雷雨
18日の 20時(UTC)から 18日の 24時(UTC)まで一時的に
視程: 6.4km
高度5000ftの千切れ雲あり, 積乱雲.
激しい雷雨, 小雨
19日の 0300時(UTC)から
変向風 6kt
視程: 10km
高度5000ftの雲は散在している
高度9000ftの千切れ雲あり
確率 30%
19日の 03時(UTC)から 19日の 04時(UTC)まで
視程: 6.4km
高度5000ftの千切れ雲あり
小雨
19日の 1100時(UTC)から
変向風 5kt
視程: 10km
高度6000ftの雲はほとんどない
高度25000ftの雲は散在している

TAF: KHVR 181728Z 1818/1918 22011KT P6SM VCTS SCT050CB BKN090 TEMPO 1820/1824 4SM -TSRA BKN050CB FM190300 VRB06KT P6SM SCT050 BKN090 PROB30 1903/1904 4SM -RA BKN050 FM191100 VRB05KT P6SM FEW060 SCT250

4,000以上の空港の気象観測と天気予報(METAR報とTAF報)

利用可能な観測所は地図上に黄色い丸と赤い丸で示す。

丸の上にカーソルを重ねると観測所名を参照できる。

次にクリックすると気象観測と天気予報を参照できる。

マップの切り替え:黒色「×」印の緑ボタンをクリックして拡大、「-」印の緑ボタンをクリックして縮小、緑色の三角印をクリックして隣りの地図に切り替え


METAR-TAF: